Time;durP1;ratioP1;P1;durP2;ratioP2;P2;SDS_P1;SDS_P2;PMS_P1;PMS_P2;Temp;Humidity;BMP_temperature;BMP_pressure;BME280_temperature;BME280_humidity;BME280_pressure;Samples;Min_cycle;Max_cycle;Signal;HPM_P1;HPM_P2
2022/06/02 00:02:14;;;;;;;12.13;9.13;;;8.70;99.90;;;;;;5115097;27;20039;-85
2022/06/02 00:04:52;;;;;;;13.40;9.80;;;9.40;99.90;;;;;;5136508;27;20155;-85
2022/06/02 00:07:28;;;;;;;15.32;10.95;;;8.60;99.90;;;;;;5163651;27;20042;-81
2022/06/02 00:10:04;;;;;;;14.95;10.80;;;8.60;99.90;;;;;;5178020;27;20071;-81
2022/06/02 00:12:37;;;;;;;14.13;10.45;;;8.60;99.90;;;;;;5159852;27;20065;-81
2022/06/02 00:15:17;;;;;;;14.23;10.10;;;8.60;99.90;;;;;;5160620;27;20056;-82
2022/06/02 00:17:53;;;;;;;16.57;10.97;;;8.60;99.90;;;;;;5179304;27;20037;-83
2022/06/02 00:20:30;;;;;;;14.40;10.55;;;8.60;99.90;;;;;;5156082;27;20288;-83
2022/06/02 00:23:11;;;;;;;15.80;10.57;;;8.60;99.90;;;;;;5156936;27;20445;-83
2022/06/02 00:25:47;;;;;;;14.02;10.88;;;8.50;99.90;;;;;;5140010;27;20471;-85
2022/06/02 00:28:26;;;;;;;16.30;10.60;;;8.90;99.90;;;;;;5139726;27;20050;-85
2022/06/02 00:30:59;;;;;;;12.75;9.98;;;9.20;99.90;;;;;;5157153;27;20047;-85
2022/06/02 00:33:33;;;;;;;13.68;10.15;;;8.40;99.90;;;;;;5138778;27;20120;-83
2022/06/02 00:36:06;;;;;;;13.63;10.68;;;8.40;99.90;;;;;;5138948;27;20051;-86
2022/06/02 00:38:36;;;;;;;14.68;10.38;;;8.40;99.90;;;;;;5139272;27;20054;-85
2022/06/02 00:41:20;;;;;;;13.93;10.48;;;8.30;99.90;;;;;;5139017;27;20047;-85
2022/06/02 00:44:03;;;;;;;15.32;11.10;;;8.30;99.90;;;;;;5156091;27;20422;-83
2022/06/02 00:46:49;;;;;;;16.42;11.00;;;8.20;99.90;;;;;;5137780;27;20051;-86
2022/06/02 00:49:22;;;;;;;14.95;10.77;;;8.50;99.90;;;;;;5157103;27;20486;-85
2022/06/02 00:52:01;;;;;;;16.02;10.65;;;9.10;99.90;;;;;;5131719;27;20043;-86
2022/06/02 00:57:35;;;;;;;14.98;10.98;;;8.00;99.90;;;;;;5117346;27;20054;-83
2022/06/02 01:00:13;;;;;;;13.90;10.73;;;7.90;99.90;;;;;;5137504;27;20418;-82
2022/06/02 01:02:46;;;;;;;13.10;10.40;;;7.90;99.90;;;;;;5117688;27;20394;-81
2022/06/02 01:05:15;;;;;;;14.98;10.80;;;8.00;99.90;;;;;;5117084;27;20513;-83
2022/06/02 01:07:52;;;;;;;14.32;11.13;;;7.90;99.90;;;;;;5117892;27;20047;-83
2022/06/02 01:10:37;;;;;;;16.15;11.13;;;7.80;99.90;;;;;;5121560;27;20047;-81
2022/06/02 01:13:24;;;;;;;16.98;12.32;;;7.80;99.90;;;;;;5155597;27;20071;-82
2022/06/02 01:16:00;;;;;;;17.50;11.57;;;7.80;99.90;;;;;;5137595;27;20057;-83
2022/06/02 01:18:38;;;;;;;15.38;11.65;;;7.80;99.90;;;;;;5133728;27;20058;-84
2022/06/02 01:21:34;;;;;;;16.15;11.40;;;7.60;99.90;;;;;;5144561;27;20079;-83
2022/06/02 01:24:38;;;;;;;15.30;11.48;;;8.40;99.90;;;;;;5142266;27;20041;-84
2022/06/02 01:27:45;;;;;;;19.20;12.38;;;7.80;99.90;;;;;;5127317;27;20057;-84
2022/06/02 01:30:47;;;;;;;15.98;12.18;;;7.80;99.90;;;;;;5117890;27;20054;-84
2022/06/02 01:33:22;;;;;;;14.50;11.15;;;7.80;99.90;;;;;;5131391;27;20467;-86
2022/06/02 01:35:56;;;;;;;14.55;11.10;;;7.80;99.90;;;;;;5135599;27;20521;-84
2022/06/02 01:38:30;;;;;;;14.15;11.07;;;8.60;99.90;;;;;;5131552;27;20086;-84
2022/06/02 01:41:14;;;;;;;14.63;10.95;;;7.70;99.90;;;;;;5116934;27;20058;-84
2022/06/02 01:43:51;;;;;;;14.05;10.20;;;8.60;99.90;;;;;;5117455;27;20059;-83
2022/06/02 01:46:35;;;;;;;15.63;10.75;;;8.10;99.90;;;;;;5117833;27;20104;-85
2022/06/02 01:49:13;;;;;;;15.93;10.50;;;8.40;99.90;;;;;;5116449;27;20058;-84
2022/06/02 01:51:54;;;;;;;15.90;10.85;;;7.80;99.90;;;;;;5135325;27;20043;-86
2022/06/02 01:54:35;;;;;;;17.05;10.98;;;8.40;99.90;;;;;;5116552;27;20512;-84
2022/06/02 01:57:15;;;;;;;14.25;11.00;;;7.60;99.90;;;;;;5117090;27;20058;-85
2022/06/02 01:59:58;;;;;;;14.30;10.77;;;7.60;99.90;;;;;;5135835;27;20047;-84
2022/06/02 02:02:34;;;;;;;13.82;10.80;;;7.60;99.90;;;;;;5133743;27;20296;-83
2022/06/02 02:05:20;;;;;;;14.27;10.82;;;8.30;99.90;;;;;;5157802;27;20053;-83
2022/06/02 02:08:15;;;;;;;15.68;10.30;;;7.60;99.90;;;;;;5155573;27;20057;-82
2022/06/02 02:10:58;;;;;;;14.88;9.95;;;7.60;99.90;;;;;;5137289;27;20083;-81
2022/06/02 02:13:35;;;;;;;13.48;10.32;;;7.60;99.90;;;;;;5153696;27;20143;-81
2022/06/02 02:16:17;;;;;;;15.80;10.35;;;7.90;99.90;;;;;;5152534;27;20054;-84
2022/06/02 02:18:59;;;;;;;14.60;10.57;;;7.70;99.90;;;;;;5153356;27;20051;-84
2022/06/02 02:21:37;;;;;;;13.88;10.13;;;7.90;99.90;;;;;;5161873;27;20047;-85
2022/06/02 02:24:15;;;;;;;15.38;10.05;;;8.10;99.90;;;;;;5145656;27;20053;-85
2022/06/02 02:26:48;;;;;;;13.82;9.93;;;7.60;99.90;;;;;;5156579;27;20050;-86
2022/06/02 02:29:28;;;;;;;13.85;10.65;;;7.10;99.90;;;;;;5136846;27;20053;-86
2022/06/02 02:32:03;;;;;;;15.73;9.57;;;7.60;99.90;;;;;;5155833;27;20038;-85
2022/06/02 02:34:51;;;;;;;12.98;10.40;;;8.00;99.90;;;;;;5147305;27;20380;-86
2022/06/02 02:37:26;;;;;;;14.38;9.35;;;7.70;99.90;;;;;;5134485;28;20054;-85
2022/06/02 02:39:58;;;;;;;14.50;9.70;;;7.70;99.90;;;;;;5119848;28;20055;-86
2022/06/02 02:42:33;;;;;;;14.73;10.30;;;7.70;99.90;;;;;;5117490;28;20058;-85
2022/06/02 02:45:23;;;;;;;11.55;9.25;;;8.30;99.90;;;;;;5120624;28;20051;-84
2022/06/02 02:47:58;;;;;;;12.30;9.18;;;7.70;99.90;;;;;;5118121;28;20047;-90
2022/06/02 02:50:31;;;;;;;12.45;8.88;;;7.70;99.90;;;;;;5117288;28;20055;-87
2022/06/02 02:53:05;;;;;;;12.80;8.95;;;8.20;99.90;;;;;;5116631;28;20423;-86
2022/06/02 02:55:38;;;;;;;14.18;9.15;;;7.70;99.90;;;;;;5134585;27;20498;-86
2022/06/02 02:58:13;;;;;;;15.23;9.70;;;7.80;99.90;;;;;;5134419;28;20057;-86
2022/06/02 03:00:51;;;;;;;10.43;8.48;;;8.10;99.90;;;;;;5135476;28;20496;-85
2022/06/02 03:03:21;;;;;;;12.20;9.38;;;8.00;99.90;;;;;;5116159;28;20130;-84
2022/06/02 03:06:10;;;;;;;14.63;8.87;;;7.90;99.90;;;;;;5133639;28;20082;-83
2022/06/02 03:08:45;;;;;;;14.10;9.05;;;7.60;99.90;;;;;;5134204;27;20502;-83
2022/06/02 03:11:30;;;;;;;12.07;8.80;;;7.80;99.90;;;;;;5115315;28;20054;-83
2022/06/02 03:14:10;;;;;;;15.55;9.35;;;7.80;99.90;;;;;;5115674;28;20426;-83
2022/06/02 03:16:39;;;;;;;11.60;9.70;;;7.50;99.90;;;;;;5134666;27;20060;-83
2022/06/02 03:19:18;;;;;;;14.57;9.82;;;7.90;99.90;;;;;;5115566;28;20059;-85
2022/06/02 03:21:55;;;;;;;13.30;10.35;;;7.40;99.90;;;;;;5116533;28;20503;-86
2022/06/02 03:24:43;;;;;;;13.05;9.02;;;7.90;99.90;;;;;;5116445;28;20051;-85
2022/06/02 03:27:33;;;;;;;13.57;10.13;;;7.40;99.90;;;;;;5133353;28;20054;-84
2022/06/02 03:30:13;;;;;;;11.45;9.00;;;7.30;99.90;;;;;;5116592;27;20433;-85
2022/06/02 03:33:10;;;;;;;16.17;10.57;;;7.40;99.90;;;;;;5134302;28;20147;-86
2022/06/02 03:35:47;;;;;;;15.30;10.07;;;7.40;99.90;;;;;;5116336;28;20459;-85
2022/06/02 03:38:36;;;;;;;12.98;9.90;;;7.40;99.90;;;;;;5134567;27;20380;-84
2022/06/02 03:41:22;;;;;;;15.25;10.25;;;7.40;99.90;;;;;;5138483;27;20107;-84
2022/06/02 03:43:56;;;;;;;12.82;10.35;;;7.90;99.90;;;;;;5139963;27;20047;-83
2022/06/02 03:46:44;;;;;;;18.83;9.60;;;7.40;99.90;;;;;;5158201;27;20062;-83
2022/06/02 03:49:30;;;;;;;13.93;9.30;;;7.50;99.90;;;;;;5159684;27;20402;-84
2022/06/02 03:52:10;;;;;;;14.95;9.07;;;7.50;99.90;;;;;;5158532;27;20054;-83
2022/06/02 03:54:50;;;;;;;12.52;9.30;;;8.30;99.90;;;;;;5139657;27;20047;-83
2022/06/02 03:57:37;;;;;;;15.63;9.23;;;7.50;99.90;;;;;;5140747;27;20095;-85
2022/06/02 04:00:11;;;;;;;11.85;8.75;;;7.60;99.90;;;;;;5140855;27;20047;-85
2022/06/02 04:02:45;;;;;;;15.18;9.23;;;7.70;99.90;;;;;;5140056;27;20038;-87
2022/06/02 04:05:48;;;;;;;11.70;8.93;;;7.70;99.90;;;;;;5141122;27;20108;-85
2022/06/02 04:08:39;;;;;;;12.93;9.30;;;8.00;99.90;;;;;;5164461;27;20130;-85
2022/06/02 04:11:19;;;;;;;12.73;8.70;;;7.80;99.90;;;;;;5148846;27;20406;-84
2022/06/02 04:13:52;;;;;;;12.93;9.05;;;8.10;99.90;;;;;;5142885;27;20046;-83
2022/06/02 04:16:37;;;;;;;12.32;9.10;;;7.80;99.90;;;;;;5131869;27;20046;-83
2022/06/02 04:22:43;;;;;;;11.13;8.43;;;7.90;99.90;;;;;;5047156;28;20125;-82
2022/06/02 04:25:20;;;;;;;13.50;9.32;;;8.00;99.90;;;;;;5057406;28;20475;-79
2022/06/02 04:27:57;;;;;;;11.75;8.65;;;8.60;99.90;;;;;;5121021;27;20043;-81
2022/06/02 04:30:37;;;;;;;19.20;9.35;;;8.10;99.90;;;;;;5138998;27;20053;-83
2022/06/02 04:33:16;;;;;;;12.77;6.63;;;9.10;99.90;;;;;;5155807;27;20120;-84
2022/06/02 04:35:50;;;;;;;11.05;8.50;;;8.20;99.90;;;;;;5140788;27;20545;-83
2022/06/02 04:38:25;;;;;;;13.27;7.85;;;8.60;99.90;;;;;;5125733;27;20057;-84
2022/06/02 04:41:00;;;;;;;14.25;7.55;;;8.70;99.90;;;;;;5130160;27;20055;-84
2022/06/02 04:43:37;;;;;;;10.48;8.63;;;8.80;99.90;;;;;;5131469;27;20051;-85
2022/06/02 04:46:18;;;;;;;8.88;6.25;;;8.90;99.90;;;;;;5127942;27;20418;-84
2022/06/02 04:48:53;;;;;;;10.10;8.15;;;9.20;99.90;;;;;;5150746;27;20042;-84
2022/06/02 04:51:28;;;;;;;10.02;5.93;;;9.30;99.90;;;;;;5130384;27;20047;-85
2022/06/02 04:54:05;;;;;;;9.32;6.22;;;9.50;99.90;;;;;;5150001;27;20034;-85
2022/06/02 04:56:37;;;;;;;9.65;7.25;;;10.50;99.90;;;;;;5152672;27;20051;-86
2022/06/02 04:59:16;;;;;;;10.68;6.65;;;9.80;99.90;;;;;;5152144;27;20047;-86
2022/06/02 05:02:01;;;;;;;8.68;6.03;;;9.90;99.90;;;;;;5155495;27;20050;-86
2022/06/02 05:04:42;;;;;;;11.25;5.95;;;10.00;99.90;;;;;;5132402;27;20043;-89
2022/06/02 05:07:25;;;;;;;9.80;7.00;;;10.10;99.90;;;;;;5155598;27;20124;-84
2022/06/02 05:10:01;;;;;;;8.50;5.35;;;10.30;99.90;;;;;;5150549;27;20042;-83
2022/06/02 05:12:37;;;;;;;9.15;5.65;;;10.40;99.90;;;;;;5149293;27;20043;-84
2022/06/02 05:15:16;;;;;;;7.68;5.55;;;10.10;99.90;;;;;;5130532;27;20043;-86
2022/06/02 05:18:08;;;;;;;8.05;6.20;;;10.80;99.90;;;;;;5131901;27;20471;-80
2022/06/02 05:21:05;;;;;;;8.80;5.28;;;11.00;99.90;;;;;;5133144;27;20428;-79
2022/06/02 05:24:03;;;;;;;7.88;5.07;;;11.20;99.90;;;;;;5132865;27;20046;-85
2022/06/02 05:27:06;;;;;;;7.13;5.35;;;11.40;99.90;;;;;;5095611;27;20062;-84
2022/06/02 05:29:59;;;;;;;5.82;4.63;;;11.60;99.90;;;;;;5135341;27;20073;-85
2022/06/02 05:32:51;;;;;;;10.65;4.93;;;11.70;99.90;;;;;;5124042;27;20039;-84
2022/06/02 05:35:47;;;;;;;6.47;4.78;;;11.80;99.90;;;;;;5127355;27;20047;-83
2022/06/02 05:38:37;;;;;;;4.85;4.07;;;12.10;99.90;;;;;;5135631;27;20046;-80
2022/06/02 05:41:17;;;;;;;6.05;4.40;;;12.30;99.90;;;;;;5131260;27;20086;-77
2022/06/02 05:43:57;;;;;;;8.73;4.38;;;12.50;99.90;;;;;;5137584;27;20046;-78
2022/06/02 05:46:39;;;;;;;6.72;4.57;;;12.60;99.90;;;;;;5136274;27;20043;-81
2022/06/02 05:49:18;;;;;;;6.03;4.53;;;12.70;99.90;;;;;;5157225;27;20043;-79
2022/06/02 05:51:56;;;;;;;5.45;4.35;;;12.90;99.90;;;;;;5149817;27;20055;-82
2022/06/02 05:54:37;;;;;;;5.45;4.10;;;13.00;99.90;;;;;;5152120;27;20051;-81
2022/06/02 05:57:14;;;;;;;9.07;3.97;;;13.10;99.90;;;;;;5152979;27;20055;-79
2022/06/02 06:00:01;;;;;;;9.65;4.95;;;13.30;99.90;;;;;;5130408;27;20054;-79
2022/06/02 06:02:49;;;;;;;7.10;3.50;;;13.40;99.90;;;;;;5126599;27;20046;-79
2022/06/02 06:05:27;;;;;;;4.03;3.50;;;13.80;99.90;;;;;;5095445;28;20090;-79
2022/06/02 06:08:21;;;;;;;5.22;3.60;;;13.80;99.90;;;;;;5104747;28;20146;-79
2022/06/02 06:10:55;;;;;;;5.93;3.47;;;14.00;99.90;;;;;;5087948;28;20467;-79
2022/06/02 06:13:39;;;;;;;5.22;3.10;;;14.20;99.90;;;;;;5112871;28;20048;-80
2022/06/02 06:16:17;;;;;;;5.25;3.22;;;14.30;99.90;;;;;;5112973;28;20048;-79
2022/06/02 06:18:57;;;;;;;4.82;3.15;;;14.50;99.90;;;;;;5098115;28;20476;-78
2022/06/02 06:21:49;;;;;;;6.00;3.05;;;14.80;99.90;;;;;;5094142;28;20060;-77
2022/06/02 06:24:40;;;;;;;5.25;2.55;;;14.30;99.90;;;;;;5092044;28;20052;-80
2022/06/02 06:27:13;;;;;;;3.50;2.38;;;15.00;99.90;;;;;;5093166;28;20056;-85
2022/06/02 06:30:02;;;;;;;4.25;2.60;;;15.00;99.90;;;;;;5093724;28;20048;-81
2022/06/02 06:32:39;;;;;;;3.90;2.00;;;15.30;99.90;;;;;;5095154;28;20496;-83
2022/06/02 06:35:17;;;;;;;6.97;2.95;;;15.50;99.90;;;;;;5107456;28;20051;-82
2022/06/02 06:38:26;;;;;;;3.90;2.65;;;15.70;99.90;;;;;;5112862;28;20048;-84
2022/06/02 06:41:23;;;;;;;4.57;2.25;;;16.00;99.90;;;;;;5103266;28;20054;-84
2022/06/02 06:44:13;;;;;;;5.07;2.50;;;16.20;99.90;;;;;;5093358;28;20040;-84
2022/06/02 06:47:07;;;;;;;6.10;2.38;;;16.10;99.90;;;;;;5093207;28;20419;-85
2022/06/02 06:49:54;;;;;;;3.58;1.92;;;16.20;99.90;;;;;;5095142;28;20040;-82
2022/06/02 06:52:54;;;;;;;4.05;2.33;;;16.20;99.90;;;;;;5094116;28;20087;-85
2022/06/02 06:55:38;;;;;;;4.65;2.38;;;16.30;99.90;;;;;;5094251;28;20101;-82
2022/06/02 06:58:18;;;;;;;7.22;3.10;;;16.60;99.90;;;;;;5122192;28;20069;-80
2022/06/02 07:00:50;;;;;;;3.83;1.70;;;16.90;99.90;;;;;;5111196;28;20108;-83
2022/06/02 07:03:24;;;;;;;6.70;2.55;;;17.30;99.90;;;;;;5117099;27;20077;-83
2022/06/02 07:05:54;;;;;;;4.80;2.08;;;17.10;99.90;;;;;;5119275;28;20064;-81
2022/06/02 07:08:30;;;;;;;5.70;2.30;;;16.90;99.90;;;;;;5112284;28;20059;-83
2022/06/02 07:12:50;;;;;;;4.88;1.88;;;17.20;99.90;;;;;;5116170;28;20446;-85
2022/06/02 07:14:08;;;;;;;5.93;1.92;;;17.30;99.90;;;;;;5112509;28;20051;-84
2022/06/02 07:16:40;;;;;;;3.92;2.30;;;17.00;99.90;;;;;;5136350;27;20075;-83
2022/06/02 07:19:49;;;;;;;4.10;2.60;;;16.80;99.90;;;;;;5139887;27;20130;-84
2022/06/02 07:22:47;;;;;;;;;;;;;;;;;;;;;
2022/06/02 07:26:36;;;;;;;6.45;2.50;;;16.60;99.90;;;;;;5053899;28;20048;-88
2022/06/02 07:29:14;;;;;;;4.22;1.77;;;16.50;99.90;;;;;;5027668;28;20060;-81
2022/06/02 07:32:02;;;;;;;4.20;1.90;;;16.70;99.90;;;;;;5116918;28;20047;-80
2022/06/02 07:34:46;;;;;;;2.90;1.75;;;16.90;99.90;;;;;;5116760;28;20048;-82
2022/06/02 07:37:32;;;;;;;5.03;2.03;;;17.20;99.90;;;;;;5117055;28;20048;-83
2022/06/02 07:40:10;;;;;;;3.33;1.63;;;17.40;99.90;;;;;;5152384;27;20056;-84
2022/06/02 07:43:15;;;;;;;3.38;1.70;;;17.50;99.90;;;;;;5136167;27;20070;-81
2022/06/02 07:45:55;;;;;;;2.35;1.27;;;18.00;99.90;;;;;;5135446;27;20108;-82
2022/06/02 07:48:53;;;;;;;4.30;1.70;;;18.20;99.90;;;;;;5135507;27;20096;-81
2022/06/02 07:51:44;;;;;;;4.72;1.80;;;18.10;99.90;;;;;;5135905;27;20054;-81
2022/06/02 07:58:31;;;;;;;5.88;1.83;;;17.50;99.90;;;;;;4916546;29;20047;-83
2022/06/02 08:01:06;;;;;;;9.73;2.75;;;17.10;99.90;;;;;;5119792;27;20050;-82
2022/06/02 08:04:17;;;;;;;29.25;6.15;;;17.40;99.90;;;;;;5135227;27;20047;-81
2022/06/02 08:07:04;;;;;;;13.57;2.83;;;17.60;99.90;;;;;;5135720;27;20143;-77
2022/06/02 08:09:53;;;;;;;17.35;3.60;;;18.30;99.90;;;;;;5138840;27;20497;-79
2022/06/02 08:12:27;;;;;;;5.78;1.80;;;18.50;99.90;;;;;;5121105;28;20059;-82
2022/06/02 08:15:17;;;;;;;7.25;1.77;;;18.30;99.90;;;;;;5119734;28;20051;-80
2022/06/02 08:17:51;;;;;;;3.70;1.45;;;18.40;99.90;;;;;;5114466;28;20062;-82
2022/06/02 08:20:37;;;;;;;3.83;1.55;;;19.00;99.90;;;;;;5115313;28;20047;-84
2022/06/02 08:23:18;;;;;;;2.53;1.20;;;19.60;99.90;;;;;;5128191;27;20059;-86
2022/06/02 08:25:56;;;;;;;3.45;1.33;;;19.90;99.90;;;;;;5126222;27;20067;-83
2022/06/02 08:28:40;;;;;;;3.53;1.98;;;20.40;99.10;;;;;;5117970;28;20130;-82
2022/06/02 08:31:18;;;;;;;4.30;1.40;;;20.60;98.80;;;;;;5137713;28;20059;-83
2022/06/02 08:33:51;;;;;;;5.30;1.40;;;20.40;97.30;;;;;;5152360;27;20050;-83
2022/06/02 08:36:27;;;;;;;6.05;1.80;;;20.80;97.40;;;;;;5155060;27;20071;-80
2022/06/02 08:39:14;;;;;;;4.55;1.40;;;20.40;96.10;;;;;;5151217;27;20085;-85
2022/06/02 08:42:17;;;;;;;5.72;1.65;;;19.80;97.10;;;;;;5115892;27;20126;-86
2022/06/02 08:45:22;;;;;;;3.65;1.70;;;19.50;95.70;;;;;;5112908;28;20047;-81
2022/06/02 08:48:35;;;;;;;5.43;1.90;;;19.10;96.30;;;;;;5117803;27;20100;-80
2022/06/02 08:51:43;;;;;;;5.05;1.58;;;18.80;97.50;;;;;;5135696;27;20047;-80
2022/06/02 08:54:43;;;;;;;5.25;1.90;;;18.70;97.80;;;;;;5115014;27;20077;-83
2022/06/02 08:57:23;;;;;;;3.47;1.55;;;19.00;97.90;;;;;;5127113;27;20498;-83
2022/06/02 09:00:18;;;;;;;2.33;1.17;;;19.80;98.10;;;;;;5134866;27;20487;-81
2022/06/02 09:03:33;;;;;;;3.05;1.45;;;20.90;93.90;;;;;;5134703;27;20067;-79
2022/06/02 09:06:49;;;;;;;8.20;1.40;;;21.50;93.20;;;;;;5136479;27;20042;-79
2022/06/02 09:09:44;;;;;;;5.05;1.30;;;22.30;91.60;;;;;;5156330;27;20051;-79
2022/06/02 09:12:50;;;;;;;5.70;1.58;;;23.20;90.40;;;;;;5133170;27;20494;-80
2022/06/02 09:15:47;;;;;;;2.75;1.30;;;23.00;89.90;;;;;;5137510;27;20098;-81
2022/06/02 09:18:24;;;;;;;2.47;1.30;;;23.00;85.10;;;;;;5145291;27;20051;-82
2022/06/02 09:21:05;;;;;;;3.28;1.10;;;22.70;90.00;;;;;;5117747;27;20467;-79
2022/06/02 09:23:50;;;;;;;2.72;1.13;;;22.30;90.00;;;;;;5120749;27;20051;-81
2022/06/02 09:26:35;;;;;;;4.10;1.17;;;22.40;89.50;;;;;;5132689;27;20059;-81
2022/06/02 09:29:22;;;;;;;3.80;1.52;;;22.30;89.10;;;;;;5116665;27;20406;-79
2022/06/02 09:32:04;;;;;;;1.98;1.20;;;22.20;88.10;;;;;;5133398;27;20043;-79
2022/06/02 09:34:47;;;;;;;3.22;1.30;;;22.40;88.40;;;;;;5134439;27;20574;-82
2022/06/02 09:37:47;;;;;;;1.63;0.93;;;22.70;85.50;;;;;;5116388;27;20096;-81
2022/06/02 09:40:30;;;;;;;2.83;1.23;;;22.70;85.80;;;;;;5134730;27;20512;-80
2022/06/02 09:43:26;;;;;;;3.40;1.50;;;22.90;84.90;;;;;;5116076;27;20055;-77
2022/06/02 09:46:03;;;;;;;2.45;1.50;;;22.40;84.90;;;;;;5115122;27;20040;-80
2022/06/02 09:48:46;;;;;;;2.55;1.20;;;21.90;88.30;;;;;;5143696;27;20505;-78
2022/06/02 09:51:31;;;;;;;3.15;1.13;;;22.00;87.80;;;;;;5133913;27;20051;-79
2022/06/02 09:54:22;;;;;;;2.50;1.30;;;21.80;87.30;;;;;;5155921;27;20098;-78
2022/06/02 10:00:12;;;;;;;3.97;1.50;;;23.30;84.40;;;;;;5153419;27;20065;-79
2022/06/02 10:02:47;;;;;;;3.42;1.67;;;22.90;85.20;;;;;;5153883;27;20047;-81
2022/06/02 10:05:44;;;;;;;3.97;1.35;;;22.10;86.60;;;;;;5143530;27;20058;-83
2022/06/02 10:08:28;;;;;;;3.10;1.30;;;22.00;87.60;;;;;;5138406;27;20498;-87
2022/06/02 10:11:11;;;;;;;3.30;1.20;;;22.10;86.20;;;;;;5118256;27;20062;-81
2022/06/02 10:14:20;;;;;;;3.75;1.65;;;22.30;86.10;;;;;;5124314;27;20111;-80
2022/06/02 10:17:17;;;;;;;2.92;1.08;;;22.30;84.50;;;;;;5145970;27;20062;-80
2022/06/02 10:20:27;;;;;;;2.60;1.40;;;22.60;85.60;;;;;;5114880;27;20458;-81
2022/06/02 10:23:06;;;;;;;2.05;1.30;;;22.10;85.50;;;;;;5129647;27;20051;-81
2022/06/02 10:25:53;;;;;;;3.28;1.30;;;22.10;87.70;;;;;;5149466;27;20043;-80
2022/06/02 10:28:51;;;;;;;3.28;1.40;;;21.90;86.90;;;;;;5116553;27;20087;-81
2022/06/02 10:31:49;;;;;;;3.00;1.20;;;22.00;86.90;;;;;;5128777;27;20129;-81
2022/06/02 10:35:06;;;;;;;4.50;1.30;;;22.50;85.90;;;;;;5131495;27;20043;-80
2022/06/02 10:38:05;;;;;;;4.28;1.40;;;22.90;85.80;;;;;;5072128;28;20492;-80
2022/06/02 10:41:02;;;;;;;4.38;1.50;;;23.50;85.50;;;;;;5134737;27;20065;-80
2022/06/02 10:43:56;;;;;;;3.13;1.25;;;24.00;81.40;;;;;;5130814;28;20414;-79
2022/06/02 10:47:07;;;;;;;2.17;1.20;;;24.40;81.40;;;;;;5125862;27;20054;-82
2022/06/02 10:49:44;;;;;;;3.25;1.20;;;25.00;80.20;;;;;;5153630;27;20058;-78
2022/06/02 10:52:47;;;;;;;2.28;1.10;;;25.50;78.90;;;;;;5140573;27;20047;-80
2022/06/02 10:55:51;;;;;;;3.60;1.10;;;25.60;74.20;;;;;;5158942;27;20039;-78
2022/06/02 10:58:55;;;;;;;2.67;1.08;;;25.00;75.10;;;;;;5120586;27;20054;-78
2022/06/02 11:02:00;;;;;;;4.03;1.35;;;24.50;77.20;;;;;;5154505;27;20046;-81
2022/06/02 11:05:06;;;;;;;2.60;1.30;;;24.30;77.50;;;;;;5137709;27;20054;-81
2022/06/02 11:08:09;;;;;;;4.93;1.42;;;24.40;78.10;;;;;;5140017;27;20091;-79
2022/06/02 11:11:04;;;;;;;4.63;1.60;;;24.60;78.20;;;;;;5157959;27;20054;-79
2022/06/02 11:14:03;;;;;;;3.22;1.38;;;25.70;77.70;;;;;;5158886;27;20051;-82
2022/06/02 11:17:03;;;;;;;3.42;1.55;;;26.30;74.80;;;;;;5139985;27;20149;-84
2022/06/02 11:20:05;;;;;;;3.33;1.20;;;26.50;72.30;;;;;;5079008;27;20051;-80
2022/06/02 11:23:24;;;;;;;2.92;1.30;;;26.20;73.50;;;;;;5119220;27;20051;-82
2022/06/02 11:26:19;;;;;;;3.37;1.43;;;25.80;74.00;;;;;;5124989;27;20042;-81
2022/06/02 11:29:28;;;;;;;3.03;1.15;;;26.00;73.70;;;;;;5128090;27;20307;-81
2022/06/02 11:32:13;;;;;;;3.67;1.10;;;26.00;74.10;;;;;;5111554;27;20058;-81
2022/06/02 11:35:15;;;;;;;3.47;1.50;;;26.90;71.70;;;;;;5138735;27;20042;-79
2022/06/02 11:38:39;;;;;;;3.47;1.27;;;27.00;71.10;;;;;;5138722;27;20409;-80
2022/06/02 11:41:33;;;;;;;5.97;1.88;;;27.70;70.50;;;;;;5048423;28;20056;-81
2022/06/02 11:44:09;;;;;;;3.65;1.40;;;27.00;68.50;;;;;;5051965;28;20493;-78
2022/06/02 11:47:02;;;;;;;4.60;1.20;;;26.40;69.70;;;;;;5114878;27;20099;-79
2022/06/02 11:49:50;;;;;;;4.25;1.50;;;26.30;71.20;;;;;;5136471;27;20058;-81
2022/06/02 11:53:07;;;;;;;3.42;1.33;;;26.30;71.50;;;;;;5137918;27;20053;-83
2022/06/02 11:55:40;;;;;;;3.28;1.00;;;26.70;69.90;;;;;;5149147;27;20051;-76
2022/06/02 11:58:34;;;;;;;3.05;1.27;;;26.80;70.40;;;;;;5139653;27;20054;-79
2022/06/02 12:01:34;;;;;;;6.03;1.83;;;26.40;69.50;;;;;;5156843;27;20051;-79
2022/06/02 12:04:31;;;;;;;2.08;1.17;;;25.50;69.40;;;;;;5156923;27;20402;-82
2022/06/02 12:07:39;;;;;;;2.53;1.25;;;25.80;71.70;;;;;;5154514;27;20154;-81
2022/06/02 12:10:41;;;;;;;5.72;2.53;;;25.90;71.20;;;;;;5132215;27;20050;-84
2022/06/02 12:13:24;;;;;;;2.08;1.20;;;26.20;70.20;;;;;;5117995;27;20479;-83
2022/06/02 12:16:23;;;;;;;3.03;1.13;;;26.70;68.50;;;;;;5129083;27;20043;-83
2022/06/02 12:19:16;;;;;;;3.03;1.10;;;26.40;69.70;;;;;;5118222;27;20082;-84
2022/06/02 12:22:06;;;;;;;2.58;0.93;;;27.00;70.10;;;;;;5073030;27;20083;-81
2022/06/02 12:24:58;;;;;;;2.55;1.30;;;27.30;68.70;;;;;;5135941;27;20090;-81
2022/06/02 12:28:16;;;;;;;3.25;1.20;;;27.80;69.20;;;;;;5135708;27;20484;-80
2022/06/02 12:31:04;;;;;;;2.00;1.00;;;28.20;66.90;;;;;;5117906;27;20047;-78
2022/06/02 12:33:47;;;;;;;2.85;1.15;;;28.20;66.80;;;;;;5136350;27;20051;-78
2022/06/02 12:36:40;;;;;;;2.15;0.93;;;28.10;66.40;;;;;;5118470;27;20376;-81
2022/06/02 12:39:36;;;;;;;4.60;1.48;;;27.20;66.20;;;;;;5122741;27;20055;-82
2022/06/02 12:42:44;;;;;;;2.20;1.08;;;26.30;68.20;;;;;;5135980;27;20058;-83
2022/06/02 12:45:48;;;;;;;5.03;1.45;;;27.10;68.80;;;;;;5117553;27;20047;-84
2022/06/02 12:48:49;;;;;;;5.68;1.67;;;27.40;65.40;;;;;;5114783;27;20046;-80
2022/06/02 12:51:48;;;;;;;2.17;1.23;;;27.20;66.60;;;;;;5137839;27;20042;-82
2022/06/02 12:54:57;;;;;;;4.10;1.33;;;27.40;68.20;;;;;;5156848;27;20055;-81
2022/06/02 12:58:01;;;;;;;2.47;1.13;;;28.00;66.80;;;;;;5138441;27;20428;-80
2022/06/02 13:00:45;;;;;;;3.13;1.00;;;28.80;66.00;;;;;;5156079;27;20046;-81
2022/06/02 13:03:42;;;;;;;2.88;1.35;;;28.30;64.60;;;;;;5133863;27;20067;-82
2022/06/02 13:06:50;;;;;;;4.65;1.17;;;27.60;64.70;;;;;;5154836;27;20394;-80
2022/06/02 13:10:00;;;;;;;2.80;1.45;;;27.30;65.90;;;;;;5136563;27;20046;-79
2022/06/02 13:13:08;;;;;;;2.28;0.90;;;27.00;66.10;;;;;;5136998;27;20058;-80
2022/06/02 13:15:58;;;;;;;3.33;1.23;;;27.10;67.40;;;;;;5114797;27;20410;-82
2022/06/02 13:18:51;;;;;;;4.13;1.23;;;27.50;67.30;;;;;;5126982;27;20062;-80
2022/06/02 13:21:42;;;;;;;2.70;1.30;;;27.70;66.00;;;;;;5155333;27;20490;-80
2022/06/02 13:24:41;;;;;;;3.22;1.30;;;27.80;65.90;;;;;;5135231;27;20053;-79
2022/06/02 13:27:32;;;;;;;2.50;0.93;;;27.00;66.20;;;;;;5136950;27;20161;-80
2022/06/02 13:30:25;;;;;;;2.25;1.00;;;26.80;66.70;;;;;;5155604;27;20042;-83
2022/06/02 13:33:46;;;;;;;2.00;1.00;;;27.50;66.90;;;;;;5127449;27;20563;-80
2022/06/02 13:36:36;;;;;;;2.28;1.05;;;27.90;64.20;;;;;;5116871;27;20054;-85
2022/06/02 13:39:22;;;;;;;;;;;27.90;64.80;;;;;;5133767;27;20526;-80
2022/06/02 13:42:30;;;;;;;4.75;1.13;;;27.70;62.80;;;;;;5134117;27;19926;-78
2022/06/02 13:45:42;;;;;;;2.92;1.40;;;27.90;64.70;;;;;;5113515;27;20054;-79
2022/06/02 13:48:50;;;;;;;2.63;1.17;;;28.30;65.70;;;;;;5136149;27;20051;-79
2022/06/02 13:52:01;;;;;;;4.75;1.10;;;28.80;65.90;;;;;;5136153;27;20860;-79
2022/06/02 13:58:05;;;;;;;2.08;1.10;;;27.90;65.30;;;;;;5143481;27;20076;-83
2022/06/02 14:00:54;;;;;;;3.75;1.30;;;27.40;66.00;;;;;;5116952;27;20472;-87
2022/06/02 14:03:54;;;;;;;3.13;1.40;;;27.20;66.70;;;;;;5134496;27;20070;-81
2022/06/02 14:06:23;;;;;;;2.13;1.10;;;26.70;65.80;;;;;;5099483;27;20798;-82
2022/06/02 14:09:25;;;;;;;3.05;1.02;;;25.80;66.30;;;;;;5130825;27;20107;-79
2022/06/02 14:12:01;;;;;;;2.78;1.20;;;25.20;67.80;;;;;;5155070;27;20517;-78
2022/06/02 14:15:00;;;;;;;2.92;1.30;;;24.50;67.00;;;;;;5155064;27;20062;-77
2022/06/02 14:17:45;;;;;;;3.75;1.40;;;24.10;68.10;;;;;;5137404;27;20450;-78
2022/06/02 14:20:23;;;;;;;3.72;1.35;;;23.80;68.70;;;;;;5154459;27;20047;-78
2022/06/02 14:23:12;;;;;;;3.47;1.42;;;23.90;69.60;;;;;;5136777;27;20053;-78
2022/06/02 14:25:47;;;;;;;4.57;1.50;;;24.00;70.40;;;;;;5136339;27;20486;-78
2022/06/02 14:28:31;;;;;;;4.20;1.55;;;24.00;69.50;;;;;;5154974;27;20047;-79
2022/06/02 14:31:07;;;;;;;3.78;1.60;;;23.30;70.40;;;;;;5136654;27;20062;-78
2022/06/02 14:33:36;;;;;;;2.08;1.13;;;23.60;70.20;;;;;;5135885;27;20047;-78
2022/06/02 14:36:14;;;;;;;2.88;1.27;;;23.50;70.00;;;;;;5137248;27;20050;-79
2022/06/02 14:38:52;;;;;;;2.80;1.55;;;23.40;69.60;;;;;;5155702;27;20088;-78
2022/06/02 14:41:26;;;;;;;5.22;1.77;;;23.30;70.70;;;;;;5154562;27;20051;-78
2022/06/02 14:44:14;;;;;;;3.92;1.40;;;23.40;70.90;;;;;;5136650;27;20127;-77
2022/06/02 14:47:12;;;;;;;3.58;1.30;;;23.30;71.10;;;;;;5154947;27;20042;-78